createdAt,value
2018-01-13T00:00:28.242Z,30.67
2018-01-13T00:03:02.578Z,29.90
2018-01-13T00:05:36.148Z,28.50
2018-01-13T00:08:10.777Z,27.00
2018-01-13T00:10:44.837Z,25.40
2018-01-13T00:13:18.887Z,29.00
2018-01-13T00:15:52.674Z,31.37
2018-01-13T00:18:27.199Z,31.00
2018-01-13T00:21:01.924Z,31.20
2018-01-13T00:23:36.615Z,30.57
2018-01-13T00:26:10.591Z,28.63
2018-01-13T00:28:44.947Z,29.10
2018-01-13T00:31:19.090Z,31.57
2018-01-13T00:33:53.388Z,28.90
2018-01-13T00:36:27.463Z,29.83
2018-01-13T00:39:02.048Z,31.20
2018-01-13T00:41:35.987Z,29.50
2018-01-13T00:44:10.451Z,29.03
2018-01-13T00:46:44.633Z,28.57
2018-01-13T00:49:18.639Z,28.60
2018-01-13T00:51:52.530Z,18.53
2018-01-13T00:54:27.041Z,28.80
2018-01-13T00:57:01.052Z,27.70
2018-01-13T00:59:34.921Z,29.97
2018-01-13T01:02:08.680Z,27.87
2018-01-13T01:04:42.435Z,27.53
2018-01-13T01:07:16.828Z,27.37
2018-01-13T01:09:51.509Z,27.83
2018-01-13T01:12:26.872Z,30.93
2018-01-13T01:15:02.282Z,29.43
2018-01-13T01:17:37.130Z,28.00
2018-01-13T01:20:12.097Z,30.27
2018-01-13T01:22:46.529Z,28.33
2018-01-13T01:25:22.416Z,29.43
2018-01-13T01:27:56.861Z,28.57
2018-01-13T01:30:30.838Z,26.73
2018-01-13T01:33:05.153Z,19.90
2018-01-13T01:35:39.472Z,26.83
2018-01-13T01:38:13.313Z,22.97
2018-01-13T01:40:48.087Z,26.93
2018-01-13T01:43:23.282Z,28.40
2018-01-13T01:45:57.169Z,28.53
2018-01-13T01:48:31.526Z,24.30
2018-01-13T01:51:05.944Z,22.00
2018-01-13T01:53:39.603Z,28.93
2018-01-13T01:56:13.865Z,27.60
2018-01-13T01:58:47.682Z,28.90
2018-01-13T02:01:22.264Z,31.60
2018-01-13T02:03:57.462Z,28.80
2018-01-13T02:06:31.533Z,28.53
2018-01-13T02:09:05.924Z,26.00
2018-01-13T02:11:39.863Z,29.93
2018-01-13T02:14:13.532Z,23.83
2018-01-13T02:16:47.323Z,28.00
2018-01-13T02:19:21.808Z,23.40
2018-01-13T02:21:56.489Z,27.27
2018-01-13T02:24:31.420Z,32.47
2018-01-13T02:27:06.677Z,24.93
2018-01-13T02:29:40.608Z,19.87
2018-01-13T02:32:15.203Z,27.40
2018-01-13T02:34:49.226Z,25.30
2018-01-13T02:37:23.134Z,27.63
2018-01-13T02:39:57.214Z,28.90
2018-01-13T02:42:31.004Z,27.93
2018-01-13T02:45:04.777Z,30.40
2018-01-13T02:47:39.241Z,29.93
2018-01-13T02:50:12.869Z,26.70
2018-01-13T02:52:47.159Z,27.27
2018-01-13T02:55:21.405Z,29.70
2018-01-13T02:57:55.900Z,23.47
2018-01-13T03:00:30.007Z,30.07
2018-01-13T03:03:04.707Z,23.40
2018-01-13T03:05:38.783Z,32.30
2018-01-13T03:08:12.473Z,30.90
2018-01-13T03:10:46.726Z,29.37
2018-01-13T03:13:21.309Z,28.37
2018-01-13T03:15:55.383Z,28.73
2018-01-13T03:18:29.089Z,25.00
2018-01-13T03:21:03.020Z,29.40
2018-01-13T03:23:37.304Z,25.40
2018-01-13T03:26:11.748Z,30.73
2018-01-13T03:28:45.844Z,27.30
2018-01-13T03:31:20.045Z,28.13
2018-01-13T03:33:54.191Z,27.97
2018-01-13T03:36:28.440Z,25.47
2018-01-13T03:39:02.184Z,29.97
2018-01-13T03:41:35.994Z,19.17
2018-01-13T03:44:09.691Z,29.73
2018-01-13T03:46:44.260Z,25.57
2018-01-13T03:49:19.596Z,25.10
2018-01-13T03:51:54.401Z,25.97
2018-01-13T03:54:28.573Z,25.37
2018-01-13T03:57:02.786Z,29.17
2018-01-13T03:59:37.285Z,29.70
2018-01-13T04:02:12.001Z,27.47
2018-01-13T04:04:46.432Z,32.20
2018-01-13T04:07:20.368Z,27.50
2018-01-13T04:09:55.342Z,27.17
2018-01-13T04:12:30.409Z,31.03
2018-01-13T04:15:05.202Z,29.30
2018-01-13T04:17:40.319Z,28.70
2018-01-13T04:20:14.480Z,23.93
2018-01-13T04:22:49.341Z,25.77
2018-01-13T04:25:23.821Z,28.90
2018-01-13T04:27:59.381Z,27.93
2018-01-13T04:30:34.449Z,27.93
2018-01-13T04:33:08.545Z,24.77
2018-01-13T04:35:42.384Z,23.57
2018-01-13T04:38:16.285Z,29.03
2018-01-13T04:40:50.200Z,28.73
2018-01-13T04:43:24.463Z,26.10
2018-01-13T04:45:58.319Z,22.77
2018-01-13T04:48:32.463Z,30.17
2018-01-13T04:51:07.688Z,32.13
2018-01-13T04:53:41.869Z,26.37
2018-01-13T04:56:16.405Z,30.67
2018-01-13T04:58:50.486Z,31.10
2018-01-13T05:01:24.436Z,29.73
2018-01-13T05:03:59.191Z,30.23
2018-01-13T05:06:33.180Z,29.60
2018-01-13T05:09:06.905Z,28.97
2018-01-13T05:11:41.956Z,28.20
2018-01-13T05:14:16.683Z,28.07
2018-01-13T05:16:51.164Z,30.93
2018-01-13T05:19:25.612Z,23.47
2018-01-13T05:21:59.974Z,21.60
2018-01-13T05:24:33.752Z,23.17
2018-01-13T05:27:08.366Z,28.07
2018-01-13T05:29:43.580Z,28.23
2018-01-13T05:32:17.627Z,27.60
2018-01-13T05:34:51.752Z,24.90
2018-01-13T05:37:25.548Z,26.57
2018-01-13T05:40:00.079Z,29.80
2018-01-13T05:42:34.511Z,28.20
2018-01-13T05:45:08.292Z,28.83
2018-01-13T05:47:43.341Z,28.20
2018-01-13T05:50:17.800Z,28.60
2018-01-13T05:52:51.927Z,31.73
2018-01-13T05:55:26.380Z,30.80
2018-01-13T05:58:01.285Z,29.53
2018-01-13T06:00:35.026Z,30.07
2018-01-13T06:03:09.028Z,34.17
2018-01-13T06:05:43.357Z,23.50
2018-01-13T06:08:17.133Z,29.50
2018-01-13T06:10:52.524Z,31.90
2018-01-13T06:13:27.133Z,28.90
2018-01-13T06:16:00.973Z,32.57
2018-01-13T06:18:34.852Z,31.80
2018-01-13T06:21:10.300Z,28.30
2018-01-13T06:23:44.038Z,31.17
2018-01-13T06:26:17.944Z,29.00
2018-01-13T06:28:53.448Z,31.30
2018-01-13T06:31:29.205Z,28.93
2018-01-13T06:34:04.208Z,32.73
2018-01-13T06:36:38.601Z,31.10
2018-01-13T06:39:13.230Z,30.60
2018-01-13T06:41:49.104Z,28.17
2018-01-13T06:44:24.675Z,30.23
2018-01-13T06:46:59.297Z,27.67
2018-01-13T06:49:34.400Z,25.90
2018-01-13T06:52:08.445Z,24.47
2018-01-13T06:54:42.362Z,25.93
2018-01-13T06:57:16.511Z,26.30
2018-01-13T06:59:51.238Z,22.73
2018-01-13T07:02:26.426Z,25.73
2018-01-13T07:05:01.696Z,27.97
2018-01-13T07:07:36.098Z,22.67
2018-01-13T07:10:10.625Z,23.30
2018-01-13T07:12:45.300Z,17.07
2018-01-13T07:15:19.831Z,25.80
2018-01-13T07:17:54.005Z,24.60
2018-01-13T07:20:29.103Z,27.37
2018-01-13T07:23:02.704Z,19.60
2018-01-13T07:25:38.057Z,28.87
2018-01-13T07:28:12.131Z,28.50
2018-01-13T07:30:47.615Z,25.13
2018-01-13T07:33:22.912Z,31.27
2018-01-13T07:35:56.888Z,28.13
2018-01-13T07:38:31.483Z,27.30
2018-01-13T07:41:06.528Z,21.40
2018-01-13T07:43:40.453Z,22.77
2018-01-13T07:46:14.212Z,25.17
2018-01-13T07:48:48.485Z,31.13
2018-01-13T07:51:22.264Z,23.50
2018-01-13T07:53:56.335Z,27.00
2018-01-13T07:56:30.016Z,25.43
2018-01-13T07:59:03.800Z,28.07
2018-01-13T08:01:39.014Z,28.60
2018-01-13T08:04:13.092Z,26.93
2018-01-13T08:06:47.009Z,27.50
2018-01-13T08:09:20.645Z,22.60
2018-01-13T08:11:54.511Z,23.10
2018-01-13T08:14:28.616Z,26.30
2018-01-13T08:17:02.677Z,24.00
2018-01-13T08:19:37.065Z,27.47
2018-01-13T08:22:11.691Z,29.57
2018-01-13T08:24:45.869Z,26.80
2018-01-13T08:27:20.418Z,28.43
2018-01-13T08:29:54.697Z,26.87
2018-01-13T08:32:28.466Z,23.87
2018-01-13T08:35:02.136Z,29.47
2018-01-13T08:37:36.704Z,27.50
2018-01-13T08:40:10.816Z,22.97
2018-01-13T08:42:44.572Z,23.47
2018-01-13T08:45:18.258Z,28.00
2018-01-13T08:47:52.293Z,26.10
2018-01-13T08:50:26.865Z,20.10
2018-01-13T08:53:00.806Z,27.83
2018-01-13T08:55:34.840Z,27.50
2018-01-13T08:58:08.484Z,27.17
2018-01-13T09:00:42.261Z,26.50
2018-01-13T09:03:16.234Z,25.83
2018-01-13T09:05:50.194Z,26.50
2018-01-13T09:08:24.709Z,25.53
2018-01-13T09:10:58.720Z,23.10
2018-01-13T09:13:32.411Z,26.87
2018-01-13T09:16:06.129Z,19.80
2018-01-13T09:18:39.816Z,22.13
2018-01-13T09:21:13.418Z,24.90
2018-01-13T09:23:47.858Z,24.00
2018-01-13T09:26:22.804Z,22.90
2018-01-13T09:28:56.863Z,19.70
2018-01-13T09:31:30.746Z,23.40
2018-01-13T09:34:04.752Z,24.30
2018-01-13T09:36:38.499Z,19.10
2018-01-13T09:39:12.936Z,27.00
2018-01-13T09:41:47.649Z,25.87
2018-01-13T09:44:22.063Z,25.27
2018-01-13T09:46:56.381Z,22.70
2018-01-13T09:49:31.136Z,28.30
2018-01-13T09:52:04.970Z,29.77
2018-01-13T09:54:39.341Z,27.57
2018-01-13T09:57:14.223Z,28.97
2018-01-13T09:59:48.780Z,27.87
2018-01-13T10:02:23.532Z,24.20
2018-01-13T10:04:57.361Z,25.90
2018-01-13T10:07:31.023Z,27.70
2018-01-13T10:10:04.954Z,25.40
2018-01-13T10:12:38.760Z,21.10
2018-01-13T10:15:12.720Z,23.80
2018-01-13T10:17:47.211Z,30.73
2018-01-13T10:20:21.134Z,27.07
2018-01-13T10:22:56.411Z,28.10
2018-01-13T10:25:30.576Z,26.97
2018-01-13T10:28:04.257Z,31.27
2018-01-13T10:30:38.885Z,32.87
2018-01-13T10:33:12.938Z,29.40
2018-01-13T10:35:48.671Z,26.77
2018-01-13T10:38:23.158Z,23.37
2018-01-13T10:40:57.459Z,29.90
2018-01-13T10:43:32.084Z,26.80
2018-01-13T10:46:05.763Z,31.87
2018-01-13T10:48:39.609Z,28.97
2018-01-13T10:51:14.305Z,29.47
2018-01-13T10:53:49.921Z,28.97
2018-01-13T10:56:24.313Z,22.67
2018-01-13T10:58:59.577Z,32.40
2018-01-13T11:01:33.814Z,31.50
2018-01-13T11:04:07.529Z,27.53
2018-01-13T11:06:41.533Z,27.60
2018-01-13T11:09:16.331Z,32.10
2018-01-13T11:11:50.747Z,30.60
2018-01-13T11:14:25.506Z,27.07
2018-01-13T11:16:59.490Z,32.33
2018-01-13T11:19:34.999Z,28.80
2018-01-13T11:22:09.085Z,28.90
2018-01-13T11:24:43.052Z,30.03
2018-01-13T11:27:17.762Z,28.00
2018-01-13T11:29:51.602Z,33.87
2018-01-13T11:32:25.337Z,34.83
2018-01-13T11:35:00.356Z,33.83
2018-01-13T11:37:34.973Z,33.93
2018-01-13T11:40:09.486Z,39.50
2018-01-13T11:42:43.353Z,41.57
2018-01-13T11:45:18.849Z,38.20
2018-01-13T11:47:52.857Z,40.20
2018-01-13T11:50:26.798Z,37.30
2018-01-13T11:53:00.584Z,38.03
2018-01-13T11:55:34.262Z,45.10
2018-01-13T11:58:08.049Z,37.80
2018-01-13T12:00:41.875Z,35.60
2018-01-13T12:03:16.366Z,39.97
2018-01-13T12:05:50.749Z,39.83
2018-01-13T12:08:25.574Z,40.13
2018-01-13T12:10:59.756Z,37.23
2018-01-13T12:13:34.967Z,28.53
2018-01-13T12:16:09.117Z,38.93
2018-01-13T12:18:43.784Z,35.97
2018-01-13T12:21:17.664Z,38.20
2018-01-13T12:23:51.333Z,39.57
2018-01-13T12:26:25.149Z,41.77
2018-01-13T12:28:59.056Z,35.90
2018-01-13T12:31:32.791Z,36.27
2018-01-13T12:34:06.566Z,39.03
2018-01-13T12:36:40.404Z,36.70
2018-01-13T12:39:15.016Z,38.33
2018-01-13T12:41:49.553Z,38.90
2018-01-13T12:44:23.683Z,35.90
2018-01-13T12:46:58.204Z,39.83
2018-01-13T12:49:32.248Z,34.90
2018-01-13T12:52:05.896Z,41.03
2018-01-13T12:54:39.869Z,39.10
2018-01-13T12:57:13.815Z,25.30
2018-01-13T12:59:47.437Z,35.73
2018-01-13T13:02:22.063Z,39.50
2018-01-13T13:04:56.524Z,40.47
2018-01-13T13:07:30.212Z,38.63
2018-01-13T13:10:03.976Z,38.27
2018-01-13T13:12:37.721Z,33.37
2018-01-13T13:15:11.713Z,35.20
2018-01-13T13:17:46.625Z,34.00
2018-01-13T13:20:20.702Z,36.17
2018-01-13T13:22:54.544Z,35.00
2018-01-13T13:25:29.139Z,37.20
2018-01-13T13:28:03.352Z,28.00
2018-01-13T13:30:37.472Z,28.43
2018-01-13T13:33:11.153Z,33.40
2018-01-13T13:35:45.273Z,38.10
2018-01-13T13:38:19.456Z,31.70
2018-01-13T13:40:53.392Z,27.70
2018-01-13T13:43:27.215Z,32.87
2018-01-13T13:46:01.771Z,31.03
2018-01-13T13:48:35.736Z,34.73
2018-01-13T13:51:10.327Z,39.80
2018-01-13T13:53:44.271Z,30.00
2018-01-13T13:56:18.733Z,28.83
2018-01-13T13:58:52.724Z,26.87
2018-01-13T14:01:28.815Z,28.10
2018-01-13T14:04:01.301Z,28.23
2018-01-13T14:06:35.106Z,27.73
2018-01-13T14:09:09.853Z,21.60
2018-01-13T14:11:43.748Z,23.37
2018-01-13T14:14:18.348Z,29.17
2018-01-13T14:16:52.735Z,21.77
2018-01-13T14:19:26.402Z,22.33
2018-01-13T14:22:00.804Z,18.77
2018-01-13T14:24:34.985Z,22.87
2018-01-13T14:27:09.439Z,27.40
2018-01-13T14:29:43.547Z,31.87
2018-01-13T14:32:18.094Z,25.50
2018-01-13T14:34:51.980Z,31.67
2018-01-13T14:37:25.748Z,27.60
2018-01-13T14:40:00.130Z,35.40
2018-01-13T14:42:34.839Z,32.30
2018-01-13T14:45:08.840Z,26.53
2018-01-13T14:47:42.480Z,27.47
2018-01-13T14:50:17.196Z,32.23
2018-01-13T14:52:51.172Z,28.43
2018-01-13T14:55:25.732Z,29.17
2018-01-13T14:57:59.581Z,37.30
2018-01-13T15:00:33.349Z,24.07
2018-01-13T15:03:08.640Z,31.03
2018-01-13T15:05:43.721Z,33.10
2018-01-13T15:08:17.670Z,40.40
2018-01-13T15:10:51.245Z,35.33
2018-01-13T15:13:25.726Z,38.40
2018-01-13T15:15:59.504Z,34.50
2018-01-13T15:18:33.443Z,31.43
2018-01-13T15:21:07.901Z,38.00
2018-01-13T15:23:42.077Z,33.57
2018-01-13T15:26:15.889Z,22.43
2018-01-13T15:28:49.662Z,29.67
2018-01-13T15:31:23.328Z,28.00
2018-01-13T15:33:57.110Z,22.73
2018-01-13T15:36:31.697Z,25.73
2018-01-13T15:39:06.421Z,24.13
2018-01-13T15:41:40.540Z,21.50
2018-01-13T15:44:14.522Z,24.00
2018-01-13T15:46:48.597Z,24.67
2018-01-13T15:49:22.586Z,21.80
2018-01-13T15:51:56.597Z,19.53
2018-01-13T15:54:31.114Z,23.57
2018-01-13T15:57:05.041Z,22.93
2018-01-13T15:59:38.760Z,20.67
2018-01-13T16:02:12.558Z,20.00
2018-01-13T16:04:47.108Z,19.67
2018-01-13T16:07:21.537Z,15.80
2018-01-13T16:09:56.099Z,17.30
2018-01-13T16:12:29.796Z,21.53
2018-01-13T16:15:03.741Z,17.30
2018-01-13T16:17:39.033Z,17.73
2018-01-13T16:20:13.121Z,14.07
2018-01-13T16:22:47.681Z,16.30
2018-01-13T16:25:21.724Z,20.10
2018-01-13T16:27:56.532Z,19.60
2018-01-13T16:30:30.510Z,18.40
2018-01-13T16:33:05.317Z,19.63
2018-01-13T16:35:40.066Z,19.50
2018-01-13T16:38:15.027Z,20.73
2018-01-13T16:40:49.014Z,20.10
2018-01-13T16:43:23.083Z,19.60
2018-01-13T16:45:57.104Z,18.90
2018-01-13T16:48:30.988Z,19.30
2018-01-13T16:51:04.807Z,19.20
2018-01-13T16:53:38.935Z,19.43
2018-01-13T16:56:12.883Z,20.67
2018-01-13T16:58:47.239Z,16.37
2018-01-13T17:01:20.914Z,20.17
2018-01-13T17:03:54.722Z,20.10
2018-01-13T17:06:30.030Z,20.57
2018-01-13T17:09:04.792Z,21.20
2018-01-13T17:11:38.741Z,18.67
2018-01-13T17:14:13.216Z,20.10
2018-01-13T17:16:47.030Z,19.47
2018-01-13T17:19:21.631Z,18.00
2018-01-13T17:21:55.645Z,15.90
2018-01-13T17:24:30.285Z,17.20
2018-01-13T17:27:04.320Z,20.33
2018-01-13T17:29:38.448Z,19.07
2018-01-13T17:32:13.512Z,20.80
2018-01-13T17:34:47.593Z,22.33
2018-01-13T17:37:22.148Z,16.43
2018-01-13T17:39:56.131Z,19.53
2018-01-13T17:42:30.470Z,18.77
2018-01-13T17:45:04.539Z,15.23
2018-01-13T17:47:38.913Z,19.07
2018-01-13T17:50:12.878Z,15.60
2018-01-13T17:52:46.632Z,14.93
2018-01-13T17:55:21.258Z,13.83
2018-01-13T17:57:55.544Z,19.30
2018-01-13T18:00:29.280Z,18.57
2018-01-13T18:03:03.023Z,18.90
2018-01-13T18:05:36.756Z,19.27
2018-01-13T18:08:11.618Z,16.80
2018-01-13T18:10:45.753Z,16.30
2018-01-13T18:13:19.501Z,18.73
2018-01-13T18:15:53.346Z,16.73
2018-01-13T18:18:27.216Z,20.13
2018-01-13T18:21:01.666Z,14.63
2018-01-13T18:23:37.238Z,21.00
2018-01-13T18:26:11.888Z,16.63
2018-01-13T18:28:47.401Z,14.63
2018-01-13T18:31:21.139Z,18.53
2018-01-13T18:33:56.502Z,19.10
2018-01-13T18:36:31.082Z,19.23
2018-01-13T18:39:04.873Z,16.50
2018-01-13T18:41:39.877Z,20.77
2018-01-13T18:44:13.720Z,14.20
2018-01-13T18:46:49.135Z,14.47
2018-01-13T18:49:23.101Z,15.87
2018-01-13T18:51:56.798Z,14.93
2018-01-13T18:54:31.605Z,17.50
2018-01-13T18:57:05.527Z,18.77
2018-01-13T18:59:40.136Z,17.23
2018-01-13T19:02:14.149Z,17.20
2018-01-13T19:04:48.184Z,19.10
2018-01-13T19:07:21.989Z,11.87
2018-01-13T19:09:56.552Z,15.30
2018-01-13T19:12:30.545Z,15.33
2018-01-13T19:15:04.169Z,16.73
2018-01-13T19:17:37.829Z,17.67
2018-01-13T19:20:11.768Z,14.67
2018-01-13T19:22:46.330Z,12.70
2018-01-13T19:25:21.138Z,19.10
2018-01-13T19:27:55.171Z,17.17
2018-01-13T19:30:29.622Z,13.30
2018-01-13T19:33:03.533Z,18.77
2018-01-13T19:35:37.897Z,18.57
2018-01-13T19:38:12.664Z,13.60
2018-01-13T19:40:46.883Z,17.70
2018-01-13T19:43:21.519Z,14.30
2018-01-13T19:45:55.443Z,13.97
2018-01-13T19:48:30.139Z,18.87
2018-01-13T19:51:04.958Z,16.00
2018-01-13T19:53:39.529Z,17.97
2018-01-13T19:56:14.325Z,14.53
2018-01-13T19:58:48.348Z,14.47
2018-01-13T20:01:22.205Z,15.90
2018-01-13T20:03:56.346Z,12.90
2018-01-13T20:06:29.943Z,16.33
2018-01-13T20:09:03.756Z,15.30
2018-01-13T20:11:37.660Z,13.63
2018-01-13T20:14:11.317Z,13.80
2018-01-13T20:16:45.068Z,15.00
2018-01-13T20:19:19.072Z,12.43
2018-01-13T20:21:53.736Z,15.80
2018-01-13T20:24:27.545Z,14.70
2018-01-13T20:27:01.692Z,15.60
2018-01-13T20:29:35.936Z,16.80
2018-01-13T20:32:10.454Z,16.90
2018-01-13T20:34:44.359Z,15.00
2018-01-13T20:37:19.747Z,14.90
2018-01-13T20:39:53.942Z,12.70
2018-01-13T20:42:27.877Z,15.67
2018-01-13T20:45:02.498Z,11.40
2018-01-13T20:47:37.396Z,13.83
2018-01-13T20:50:11.342Z,14.73
2018-01-13T20:52:46.644Z,13.00
2018-01-13T20:55:20.645Z,15.93
2018-01-13T20:57:55.879Z,16.90
2018-01-13T21:00:30.631Z,15.87
2018-01-13T21:03:04.680Z,15.73
2018-01-13T21:05:39.229Z,15.33
2018-01-13T21:08:13.218Z,14.50
2018-01-13T21:10:47.747Z,15.87
2018-01-13T21:13:21.756Z,15.70
2018-01-13T21:15:55.581Z,14.67
2018-01-13T21:18:29.896Z,14.30
2018-01-13T21:21:03.832Z,16.37
2018-01-13T21:23:37.540Z,12.20
2018-01-13T21:26:11.433Z,15.80
2018-01-13T21:28:45.331Z,13.67
2018-01-13T21:31:19.274Z,15.87
2018-01-13T21:33:52.952Z,14.70
2018-01-13T21:36:26.987Z,14.50
2018-01-13T21:39:00.601Z,13.90
2018-01-13T21:41:34.681Z,15.20
2018-01-13T21:44:08.411Z,12.23
2018-01-13T21:46:42.077Z,13.23
2018-01-13T21:49:16.603Z,16.40
2018-01-13T21:51:50.557Z,15.67
2018-01-13T21:54:24.269Z,15.00
2018-01-13T21:56:58.042Z,12.47
2018-01-13T21:59:32.470Z,17.20
2018-01-13T22:02:06.638Z,17.13
2018-01-13T22:04:40.664Z,14.37
2018-01-13T22:07:15.251Z,15.63
2018-01-13T22:09:50.039Z,12.77
2018-01-13T22:12:24.803Z,16.40
2018-01-13T22:15:00.104Z,15.57
2018-01-13T22:17:34.834Z,9.50
2018-01-13T22:20:08.777Z,14.40
2018-01-13T22:22:42.422Z,15.37
2018-01-13T22:25:16.960Z,13.03
2018-01-13T22:27:52.057Z,14.43
2018-01-13T22:30:25.947Z,17.90
2018-01-13T22:32:59.706Z,15.73
2018-01-13T22:35:34.156Z,15.00
2018-01-13T22:38:09.541Z,13.63
2018-01-13T22:40:44.086Z,15.50
2018-01-13T22:43:17.723Z,15.73
2018-01-13T22:45:52.301Z,13.53
2018-01-13T22:48:26.415Z,16.47
2018-01-13T22:51:01.097Z,15.47
2018-01-13T22:53:35.658Z,16.67
2018-01-13T22:56:10.181Z,16.00
2018-01-13T22:58:44.072Z,15.37
2018-01-13T23:01:17.732Z,15.80
2018-01-13T23:03:51.548Z,14.57
2018-01-13T23:06:25.309Z,14.47
2018-01-13T23:08:59.080Z,16.07
2018-01-13T23:11:33.637Z,13.87
2018-01-13T23:14:07.304Z,14.80
2018-01-13T23:16:41.625Z,14.17
2018-01-13T23:19:16.366Z,16.33
2018-01-13T23:21:50.192Z,12.93
2018-01-13T23:24:23.965Z,14.37
2018-01-13T23:26:57.684Z,12.03
2018-01-13T23:29:31.529Z,14.47
2018-01-13T23:32:05.168Z,13.93
2018-01-13T23:34:38.886Z,13.53
2018-01-13T23:37:12.600Z,15.30
2018-01-13T23:39:46.988Z,14.40
2018-01-13T23:42:20.891Z,15.13
2018-01-13T23:44:55.347Z,13.37
2018-01-13T23:47:30.601Z,14.50
2018-01-13T23:50:04.844Z,11.97
2018-01-13T23:52:38.913Z,13.87
2018-01-13T23:55:12.726Z,14.70
2018-01-13T23:57:46.697Z,13.47
